Latest Weather Observations for Mangalore

IDV60801

Issued at 8:05 am EST Saturday 30 August 2014 (issued every 30 minutes, with the page automatically refreshed every 10 minutes)

About weather observations | Map of weather stations | Latest weather observations for VIC | Other Formats
Station Details ID: 088109 Name: MANGALORE AIRPORT Lat: -36.89 Lon: 145.19 Height: 140.8 m
Data from the previous 72 hours. | See also: Recent months at Mangalore
Date/Time
EST
Temp
°C
App
Temp
°C
Dew
Point
Rel
Hum
%
Delta-T
°C
Wind Press
QNH
hPa
Press
MSL
hPa
Rain
since 9 am
mm
Dir
 
Spd
km/h
Gust
km/h
Spd
kts
Gust
kts
30/08:04am 6.5 5.7 6.4 99 0.0 S 0 0 0 0 1026.7 1026.9 0.0
30/08:00am 6.2 5.3 6.1 99 0.0 S 0 0 0 0 1026.7 1026.9 0.0
30/07:30am 3.3 1.8 3.2 99 0.0 S 0 0 0 0 1026.5 1026.7 0.0
30/07:00am 3.5 2.1 3.4 99 0.0 CALM 0 0 0 0 1026.0 1026.3 0.0
30/06:44am 2.6 1.0 2.3 98 0.1 CALM 0 0 0 0 1025.9 1026.2 0.0
30/06:30am 2.6 -0.7 2.2 97 0.2 S 9 13 5 7 1025.8 1026.1 0.0
30/06:00am 5.9 3.2 5.8 99 0.0 SW 9 11 5 6 1025.6 1025.9 0.0
30/05:30am 6.2 3.6 6.1 99 0.0 SW 9 13 5 7 1025.4 1025.7 0.0
30/05:00am 6.7 4.2 6.6 99 0.0 SW 9 13 5 7 1025.2 1025.5 0.0
30/04:30am 7.1 4.3 7.0 99 0.0 SSW 11 13 6 7 1024.9 1025.2 0.0
30/04:00am 7.3 4.6 7.2 99 0.0 SSW 11 15 6 8 1024.9 1025.2 0.0
30/03:30am 7.6 4.5 7.3 98 0.1 SSW 13 17 7 9 1025.1 1025.4 0.0
30/03:00am 7.8 4.7 7.4 97 0.2 SSW 13 17 7 9 1025.2 1025.5 0.0
30/02:30am 8.2 4.8 7.6 96 0.3 SSW 15 20 8 11 1025.3 1025.6 0.0
30/02:00am 8.3 5.3 7.5 95 0.4 SSW 13 19 7 10 1025.5 1025.8 0.0
30/01:30am 8.3 4.8 7.4 94 0.4 SSW 15 19 8 10 1025.7 1026.0 0.0
30/01:00am 8.4 5.4 7.5 94 0.4 SSW 13 19 7 10 1025.9 1026.2 0.0
30/12:30am 8.3 4.5 7.4 94 0.4 SSW 17 20 9 11 1026.0 1026.3 0.0
30/12:00am 8.1 4.9 7.0 93 0.5 SSW 13 19 7 10 1026.2 1026.4 0.0
 
Date/Time
EST
Temp
°C
App
Temp
°C
Dew
Point
Rel
Hum
%
Delta-T
°C
Wind Press
QNH
hPa
Press
MSL
hPa
Rain
since 9 am
mm
Dir
 
Spd
km/h
Gust
km/h
Spd
kts
Gust
kts
29/11:30pm 8.2 5.0 7.0 92 0.6 SSW 13 17 7 9 1026.4 1026.6 0.0
29/11:27pm 8.2 5.0 6.8 91 0.7 SSW 13 17 7 9 1026.4 1026.6 0.0
29/11:00pm 8.5 5.4 7.1 91 0.7 SSW 13 17 7 9 1026.5 1026.7 0.0
29/10:30pm 8.5 5.4 7.3 92 0.6 SSW 13 17 7 9 1026.6 1026.8 0.0
29/10:00pm 8.5 5.7 7.1 91 0.7 SSW 11 15 6 8 1026.6 1026.8 0.0
29/09:30pm 8.4 5.2 6.9 90 0.7 S 13 17 7 9 1026.6 1026.8 0.0
29/09:00pm 8.8 5.7 7.1 89 0.8 SSW 13 17 7 9 1026.6 1026.8 0.0
29/08:30pm 8.7 5.9 6.8 88 0.9 SSW 11 17 6 9 1026.7 1026.9 0.0
29/08:00pm 9.1 5.9 6.9 86 1.0 SSW 13 15 7 8 1026.6 1026.8 0.0
29/07:30pm 9.6 6.5 7.2 85 1.1 SSW 13 17 7 9 1026.5 1026.7 0.0
29/07:00pm 9.8 6.7 7.1 83 1.3 SSW 13 15 7 8 1026.5 1026.7 0.0
29/06:30pm 10.6 7.2 7.5 81 1.5 SSW 15 20 8 11 1026.3 1026.5 0.0
29/06:00pm 11.3 8.3 7.6 78 1.8 SSW 13 19 7 10 1026.2 1026.4 0.0
29/05:30pm 12.5 9.2 8.0 74 2.2 SSW 15 20 8 11 1025.9 1026.2 0.0
29/05:00pm 13.6 10.0 8.2 70 2.7 SSW 17 22 9 12 1025.9 1026.2 0.0
29/04:30pm 14.4 10.5 8.6 68 2.9 SSW 19 22 10 12 1025.8 1026.1 0.0
29/04:00pm 14.9 11.4 8.6 66 3.2 SSW 17 24 9 13 1025.8 1026.1 0.0
29/03:30pm 15.0 11.1 8.5 65 3.3 SSW 19 26 10 14 1025.8 1026.1 0.0
29/03:00pm 15.5 11.7 9.0 65 3.3 SSW 19 24 10 13 1026.0 1026.3 0.0
29/02:30pm 15.5 11.3 8.3 62 3.7 SSW 20 26 11 14 1026.3 1026.5 0.0
29/02:00pm 16.2 12.3 8.7 61 3.8 SSW 19 26 10 14 1026.5 1026.7 0.0
29/01:30pm 16.9 13.5 9.1 60 4.1 SSW 17 22 9 12 1026.7 1026.9 0.0
29/01:00pm 16.7 13.4 7.9 56 4.4 SSW 15 20 8 11 1027.1 1027.3 0.0
29/12:30pm 16.6 12.9 8.1 57 4.3 S 17 22 9 12 1027.5 1027.7 0.0
29/12:00pm 16.6 13.4 8.6 59 4.1 SSW 15 20 8 11 1027.9 1028.1 0.0
29/11:30am 16.2 13.5 8.9 62 3.8 SSW 13 19 7 10 1028.3 1028.6 0.0
29/11:00am 15.5 13.3 9.4 67 3.1 SSW 11 17 6 9 1028.4 1028.7 0.0
29/10:30am 13.8 12.3 9.0 73 2.4 SE 7 11 4 6 1028.5 1028.8 0.0
29/10:00am 12.5 11.0 9.0 79 1.8 S 7 11 4 6 1028.7 1029.0 0.0
29/09:30am 11.3 9.7 8.7 84 1.3 SSW 7 9 4 5 1028.8 1029.1 0.0
29/09:00am 9.7 8.0 8.5 92 0.6 SSW 7 9 4 5 1029.0 1029.3 0.0
29/08:30am 7.7 5.8 7.4 98 0.1 SSW 7 9 4 5 1029.1 1029.4 0.0
29/08:00am 5.2 4.1 5.1 99 0.0 CALM 0 0 0 0 1028.9 1029.2 0.0
29/07:30am 3.3 1.8 3.2 99 0.0 CALM 0 0 0 0 1028.6 1028.9 0.0
29/07:09am 2.7 1.1 2.6 99 0.0 CALM 0 0 0 0 1028.4 1028.7 0.0
29/07:00am 2.7 0.4 2.6 99 0.0 SSW 4 7 2 4 1028.2 1028.5 0.0
29/06:49am 2.5 0.9 2.2 98 0.1 CALM 0 0 0 0 1028.1 1028.4 0.0
29/06:30am 2.1 0.4 1.8 98 0.1 CALM 0 0 0 0 1027.9 1028.1 0.0
29/06:12am 2.0 0.3 1.6 97 0.2 CALM 0 0 0 0 1027.9 1028.1 0.0
29/06:00am 2.7 1.1 2.3 97 0.2 CALM 0 0 0 0 1027.8 1028.0 0.0
29/05:51am 2.6 0.9 2.0 96 0.2 CALM 0 2 0 1 1027.8 1028.0 0.0
29/05:30am 5.0 2.7 4.9 99 0.0 SSW 6 7 3 4 1027.7 1027.9 0.0
29/05:00am 4.8 1.9 4.5 98 0.1 SSW 9 11 5 6 1027.7 1027.9 0.0
29/04:30am 5.2 2.4 5.1 99 0.0 SSW 9 11 5 6 1027.8 1028.0 0.0
29/04:00am 5.1 1.9 5.0 99 0.0 N 11 13 6 7 1027.6 1027.8 0.0
29/03:30am 4.0 2.7 3.9 99 0.0 CALM 0 0 0 0 1027.5 1027.7 0.0
29/03:00am 4.2 2.1 3.8 97 0.2 N 4 7 2 4 1027.5 1027.7 0.0
29/02:30am 5.2 4.1 4.9 98 0.1 CALM 0 0 0 0 1027.6 1027.8 0.0
29/02:00am 5.3 3.8 4.9 97 0.2 N 2 7 1 4 1028.1 1028.4 0.0
29/01:30am 5.6 3.4 5.2 97 0.2 N 6 7 3 4 1028.1 1028.4 0.0
29/01:00am 5.8 3.4 5.4 97 0.2 N 7 9 4 5 1028.2 1028.5 0.0
29/12:30am 4.9 3.6 4.0 94 0.4 CALM 0 0 0 0 1028.2 1028.5 0.0
29/12:00am 6.2 5.2 5.5 95 0.3 CALM 0 0 0 0 1028.3 1028.6 0.0
 
Date/Time
EST
Temp
°C
App
Temp
°C
Dew
Point
Rel
Hum
%
Delta-T
°C
Wind Press
QNH
hPa
Press
MSL
hPa
Rain
since 9 am
mm
Dir
 
Spd
km/h
Gust
km/h
Spd
kts
Gust
kts
28/11:30pm 6.2 5.1 5.2 93 0.4 CALM 0 0 0 0 1028.3 1028.6 0.0
28/11:00pm 6.0 4.8 4.8 92 0.5 CALM 0 0 0 0 1028.5 1028.8 0.0
28/10:30pm 6.3 5.2 4.9 91 0.6 CALM 0 0 0 0 1028.6 1028.9 0.0
28/10:00pm 6.6 5.5 5.1 90 0.7 CALM 0 0 0 0 1028.6 1028.9 0.0
28/09:30pm 6.9 4.7 5.1 88 0.8 N 6 7 3 4 1028.6 1028.9 0.0
28/09:00pm 8.5 7.8 7.1 91 0.7 CALM 0 0 0 0 1028.3 1028.6 0.0
28/08:30pm 8.1 6.9 6.4 89 0.8 N 2 6 1 3 1028.1 1028.4 0.0
28/08:00pm 8.5 6.0 6.5 87 0.9 N 9 11 5 6 1027.9 1028.1 0.0
28/07:30pm 8.2 5.5 5.5 83 1.2 N 9 9 5 5 1027.7 1027.9 0.0
28/07:00pm 10.2 9.4 6.7 79 1.6 CALM 0 0 0 0 1027.5 1027.7 0.0
28/06:30pm 11.8 10.7 6.9 72 2.4 N 2 6 1 3 1027.4 1027.6 0.0
28/06:00pm 13.4 11.8 7.8 69 2.8 N 6 7 3 4 1027.2 1027.4 0.0
28/05:30pm 15.6 13.8 7.9 60 3.9 N 7 9 4 5 1027.1 1027.3 0.0
28/05:00pm 16.9 14.7 6.1 49 5.3 N 7 9 4 5 1027.1 1027.3 0.0
28/04:30pm 17.9 15.7 6.1 46 5.8 N 7 11 4 6 1027.0 1027.2 0.0
28/04:00pm 18.5 16.4 5.7 43 6.3 N 6 9 3 5 1027.0 1027.2 0.0
28/03:30pm 18.2 16.1 5.8 44 6.1 N 6 9 3 5 1027.1 1027.3 0.0
28/03:00pm 18.1 16.0 8.1 52 5.1 N 9 13 5 7 1027.2 1027.4 0.0
28/02:30pm 17.8 15.2 6.3 47 5.7 NNE 9 11 5 6 1027.4 1027.6 0.0
28/02:00pm 17.7 15.7 6.9 49 5.4 NNE 7 13 4 7 1027.5 1027.7 0.0
28/01:30pm 17.4 14.7 5.7 46 5.7 NNE 9 15 5 8 1027.6 1027.8 0.0
28/01:00pm 17.3 14.3 7.9 54 4.8 NNE 13 20 7 11 1027.9 1028.1 0.0
28/12:30pm 16.8 14.2 6.3 50 5.2 NNE 9 19 5 10 1028.2 1028.5 0.0
28/12:00pm 16.2 13.8 6.9 54 4.6 NNE 9 17 5 9 1028.8 1029.1 0.0
28/11:30am 15.5 13.0 6.5 55 4.4 N 9 15 5 8 1029.2 1029.5 0.0
28/11:00am 15.4 13.6 7.9 61 3.8 NNE 7 13 4 7 1029.4 1029.7 0.0
28/10:30am 14.7 12.4 7.3 61 3.7 N 9 13 5 7 1029.5 1029.8 0.0
28/10:00am 13.5 12.3 6.4 62 3.4 SW 2 6 1 3 1029.7 1030.0 0.0
28/09:30am 12.1 11.1 7.2 72 2.4 SW 2 7 1 4 1029.7 1030.0 0.0
28/09:00am 11.0 10.6 8.4 84 1.3 CALM 0 0 0 0 1029.6 1029.9 0.0
28/08:30am 8.2 7.4 8.1 99 0.0 SW 2 6 1 3 1029.4 1029.7 0.0
28/08:08am 6.9 5.0 6.8 99 0.0 SW 6 7 3 4 1029.3 1029.6 0.0
28/08:00am 6.3 4.7 6.2 99 0.0 SW 4 7 2 4 1029.2 1029.5 0.0
28/07:43am 4.7 2.4 4.6 99 0.0 SW 6 7 3 4 1029.2 1029.5 0.0
28/07:42am 4.5 2.1 4.4 99 0.0 SW 6 9 3 5 1029.2 1029.5 0.0
28/07:30am 3.0 0.2 2.9 99 0.0 SW 7 9 4 5 1029.1 1029.4 0.0
28/07:00am 2.2 -0.8 2.1 99 0.0 SW 7 11 4 6 1028.8 1029.1 0.0
28/06:30am 2.4 -0.4 2.1 98 0.1 SW 6 7 3 4 1028.6 1028.9 0.0
28/06:00am 4.0 1.3 3.7 98 0.1 SW 7 9 4 5 1028.4 1028.7 0.0
28/05:30am 4.9 2.0 4.6 98 0.1 SW 9 52 5 28 1027.9 1028.1 0.0
28/05:00am 4.6 1.6 4.0 96 0.3 SW 9 11 5 6 1027.8 1028.0 0.0
28/04:32am 5.5 2.2 4.6 94 0.4 SSW 11 15 6 8 1027.6 1027.8 0.0
28/04:30am 5.7 2.1 5.0 95 0.3 SSW 13 17 7 9 1027.6 1027.8 0.0
28/04:05am 6.5 3.1 6.1 97 0.2 SSW 13 15 7 8 1027.5 1027.7 0.0
28/04:00am 6.5 3.5 6.2 98 0.1 SW 11 15 6 8 1027.5 1027.7 0.0
28/03:30am 5.6 1.6 4.7 94 0.4 SW 15 17 8 9 1027.6 1027.8 0.0
28/03:29am 5.5 1.4 4.6 94 0.4 SW 15 17 8 9 1027.5 1027.7 0.0
28/03:00am 7.0 3.6 5.9 93 0.5 SSW 13 17 7 9 1027.6 1027.8 0.0
28/02:30am 6.8 4.4 5.3 90 0.7 SSW 7 9 4 5 1027.7 1027.9 0.0
28/02:00am 7.3 4.2 5.4 88 0.8 SSW 11 15 6 8 1027.7 1027.9 0.0
28/01:30am 7.4 4.3 5.5 88 0.9 SSW 11 15 6 8 1027.6 1027.8 0.0
28/01:00am 7.7 4.9 5.0 83 1.2 SSW 9 11 5 6 1027.8 1028.0 0.0
28/12:30am 8.3 5.5 5.1 80 1.4 SSW 9 13 5 7 1027.9 1028.1 0.0
28/12:00am 8.6 5.7 4.8 77 1.7 SW 9 13 5 7 1027.9 1028.1 0.0
 
Date/Time
EST
Temp
°C
App
Temp
°C
Dew
Point
Rel
Hum
%
Delta-T
°C
Wind Press
QNH
hPa
Press
MSL
hPa
Rain
since 9 am
mm
Dir
 
Spd
km/h
Gust
km/h
Spd
kts
Gust
kts
27/11:30pm 8.9 6.0 4.7 75 1.9 SSW 9 11 5 6 1027.9 1028.1 0.0
27/11:00pm 9.4 5.4 4.8 73 2.1 S 15 17 8 9 1027.9 1028.1 0.0
27/10:30pm 9.8 7.0 5.2 73 2.1 SSW 9 13 5 7 1027.8 1028.0 0.0
27/10:00pm 10.1 6.7 5.9 75 1.9 S 13 17 7 9 1027.5 1027.7 0.0
27/09:30pm 10.4 6.9 5.6 72 2.2 SSW 13 15 7 8 1027.4 1027.6 0.0
27/09:00pm 11.1 8.1 6.0 71 2.4 WSW 11 13 6 7 1027.4 1027.6 0.0
27/08:30pm 10.1 7.6 6.4 78 1.7 W 9 11 5 6 1027.2 1027.4 0.0
27/08:00pm 12.6 10.0 6.2 65 3.0 SSW 9 13 5 7 1027.0 1027.2 0.0
27/07:30pm 12.7 12.0 7.0 68 2.8 CALM 0 7 0 4 1026.9 1027.1 0.0
27/07:00pm 12.5 11.1 7.4 71 2.5 SSW 4 6 2 3 1026.6 1026.8 0.0
27/06:30pm 13.1 10.5 6.2 63 3.3 SSW 9 11 5 6 1026.5 1026.7 0.0
27/06:00pm 15.7 12.6 7.2 57 4.2 SSW 13 17 7 9 1026.4 1026.6 0.0
27/05:30pm 16.9 14.3 7.8 55 4.6 SSW 11 15 6 8 1026.2 1026.4 0.0
27/05:00pm 18.1 14.7 7.8 51 5.2 SSW 15 20 8 11 1026.0 1026.3 0.0
27/04:30pm 19.0 15.7 8.1 49 5.6 SSW 15 20 8 11 1025.8 1026.1 0.0
27/04:00pm 19.4 16.0 7.5 46 6.1 SSW 15 20 8 11 1025.6 1025.9 0.0
27/03:30pm 20.2 17.6 7.9 45 6.4 S 11 13 6 7 1025.7 1026.0 0.0
27/03:00pm 20.2 17.7 8.2 46 6.2 SSW 11 17 6 9 1025.7 1026.0 0.0
27/02:30pm 18.8 15.7 7.3 47 5.9 S 13 19 7 10 1025.9 1026.2 0.0
27/02:00pm 20.0 17.1 8.0 46 6.2 SSW 13 19 7 10 1026.2 1026.4 0.0
27/01:30pm 19.2 16.3 8.2 49 5.7 SSW 13 19 7 10 1026.4 1026.6 0.0
27/01:00pm 19.5 17.2 9.1 51 5.5 S 11 19 6 10 1026.6 1026.8 0.0
27/12:30pm 18.4 15.8 7.8 50 5.4 SSW 11 17 6 9 1027.0 1027.2 0.0
27/12:00pm 17.9 15.9 8.7 55 4.8 S 9 13 5 7 1027.4 1027.6 0.0
27/11:30am 17.3 15.2 8.2 55 4.7 S 9 13 5 7 1027.8 1028.0 0.0
27/11:00am 17.0 15.0 8.7 58 4.3 SSW 9 13 5 7 1028.2 1028.5 0.0
27/10:30am 15.7 13.8 8.9 64 3.5 SW 9 13 5 7 1028.3 1028.6 0.0
27/10:00am 14.3 12.8 10.5 78 2.0 SW 9 11 5 6 1028.3 1028.6 0.0
27/09:30am 12.0 10.3 9.7 86 1.2 SW 9 11 5 6 1028.2 1028.5 0.0
27/09:00am 10.0 8.6 9.7 98 0.2 SW 7 9 4 5 1028.1 1028.4 0.0
27/08:30am 8.2 6.1 8.1 99 0.0 SW 9 9 5 5 1028.0 1028.3 0.0

Other Formats:

Comma delimited format used in spreadsheet applications
http://www.bom.gov.au/fwo/IDV60801/IDV60801.94874.axf

JavaScript Object Notation format (JSON) in row-major order
http://www.bom.gov.au/fwo/IDV60801/IDV60801.94874.json